createdAt,value
2022-12-19T00:01:37.036Z,37.92
2022-12-19T00:04:08.850Z,34.17
2022-12-19T00:06:38.083Z,43.47
2022-12-19T00:09:10.412Z,44.90
2022-12-19T00:11:38.807Z,48.70
2022-12-19T00:14:06.405Z,33.47
2022-12-19T00:16:33.296Z,40.10
2022-12-19T00:19:01.441Z,32.75
2022-12-19T00:21:34.044Z,40.58
2022-12-19T00:24:03.255Z,31.48
2022-12-19T00:26:34.973Z,39.95
2022-12-19T00:29:09.828Z,38.75
2022-12-19T00:31:39.446Z,37.95
2022-12-19T00:34:06.242Z,33.60
2022-12-19T00:36:34.489Z,57.63
2022-12-19T00:39:05.677Z,38.95
2022-12-19T00:41:37.621Z,38.42
2022-12-19T00:44:13.792Z,30.98
2022-12-19T00:46:40.685Z,42.83
2022-12-19T00:49:07.482Z,35.28
2022-12-19T00:51:37.176Z,37.58
2022-12-19T00:54:05.496Z,39.20
2022-12-19T00:56:37.187Z,54.22
2022-12-19T00:59:04.205Z,37.22
2022-12-19T01:01:34.808Z,34.17
2022-12-19T01:04:28.054Z,36.78
2022-12-19T01:06:51.499Z,41.67
2022-12-19T01:09:18.822Z,45.05
2022-12-19T01:12:04.416Z,39.55
2022-12-19T01:14:31.193Z,35.58
2022-12-19T01:16:57.932Z,33.88
2022-12-19T01:19:26.862Z,24.30
2022-12-19T01:21:53.736Z,29.33
2022-12-19T01:24:20.461Z,28.58
2022-12-19T01:26:47.196Z,32.70
2022-12-19T01:29:14.130Z,26.38
2022-12-19T01:31:40.950Z,32.42
2022-12-19T01:34:07.772Z,32.55
2022-12-19T01:36:40.077Z,35.53
2022-12-19T01:41:35.564Z,30.50
2022-12-19T01:44:07.886Z,32.63
2022-12-19T01:46:48.502Z,38.50
2022-12-19T01:49:25.639Z,33.53
2022-12-19T01:51:56.124Z,52.10
2022-12-19T01:54:29.246Z,45.80
2022-12-19T01:56:58.984Z,38.78
2022-12-19T01:59:37.716Z,30.15
2022-12-19T02:02:16.017Z,27.02
2022-12-19T02:04:43.247Z,37.28
2022-12-19T02:07:15.912Z,32.80
2022-12-19T02:09:46.874Z,38.70
2022-12-19T02:12:14.523Z,38.08
2022-12-19T02:14:41.752Z,30.40
2022-12-19T02:17:42.549Z,36.33
2022-12-19T02:20:24.111Z,31.60
2022-12-19T02:23:18.380Z,32.13
2022-12-19T02:26:06.836Z,28.60
2022-12-19T02:29:15.978Z,31.90
2022-12-19T02:32:19.724Z,31.00
2022-12-19T02:35:31.932Z,30.23
2022-12-19T02:38:36.877Z,31.02
2022-12-19T02:41:25.051Z,34.58
2022-12-19T02:43:58.928Z,25.70
2022-12-19T02:46:27.641Z,38.88
2022-12-19T02:48:54.795Z,40.53
2022-12-19T02:51:21.539Z,30.33
2022-12-19T02:53:48.631Z,23.58
2022-12-19T02:56:46.080Z,27.38
2022-12-19T02:59:57.271Z,39.13
2022-12-19T03:02:40.898Z,26.65
2022-12-19T03:05:24.902Z,35.50
2022-12-19T03:08:28.253Z,31.55
2022-12-19T03:11:02.396Z,42.85
2022-12-19T03:13:46.635Z,29.52
2022-12-19T03:16:14.265Z,19.52
2022-12-19T03:18:41.698Z,37.42
2022-12-19T03:21:32.740Z,25.35
2022-12-19T03:23:59.673Z,32.60
2022-12-19T03:26:32.715Z,28.38
2022-12-19T03:29:13.535Z,23.73
2022-12-19T03:31:42.081Z,20.30
2022-12-19T03:34:22.600Z,30.90
2022-12-19T03:36:56.668Z,39.42
2022-12-19T03:39:25.532Z,30.98
2022-12-19T03:42:12.254Z,31.80
2022-12-19T03:44:42.855Z,30.67
2022-12-19T03:47:22.988Z,25.65
2022-12-19T03:49:50.590Z,32.40
2022-12-19T03:52:35.842Z,32.60
2022-12-19T03:55:36.374Z,24.15
2022-12-19T03:58:11.848Z,30.27
2022-12-19T04:00:47.500Z,31.60
2022-12-19T04:03:17.314Z,27.42
2022-12-19T04:05:45.997Z,29.38
2022-12-19T04:08:13.538Z,26.95
2022-12-19T04:10:56.156Z,25.00
2022-12-19T04:13:37.784Z,30.58
2022-12-19T04:16:19.098Z,21.75
2022-12-19T04:18:53.548Z,21.08
2022-12-19T04:21:31.682Z,31.90
2022-12-19T04:24:10.148Z,28.10
2022-12-19T04:26:39.435Z,32.83
2022-12-19T04:29:08.089Z,26.48
2022-12-19T04:31:36.267Z,43.50
2022-12-19T04:34:06.108Z,29.65
2022-12-19T04:36:33.085Z,35.38
2022-12-19T04:38:59.802Z,31.23
2022-12-19T04:41:26.566Z,42.90
2022-12-19T04:43:53.337Z,31.75
2022-12-19T04:46:20.139Z,34.90
2022-12-19T04:48:46.979Z,28.25
2022-12-19T04:51:13.928Z,30.23
2022-12-19T04:53:40.832Z,33.38
2022-12-19T04:56:10.346Z,24.38
2022-12-19T04:58:37.101Z,32.40
2022-12-19T05:01:06.737Z,25.85
2022-12-19T05:03:34.513Z,39.92
2022-12-19T05:06:11.897Z,31.10
2022-12-19T05:08:41.098Z,32.60
2022-12-19T05:11:19.148Z,29.55
2022-12-19T05:13:46.875Z,28.38
2022-12-19T05:16:15.984Z,36.30
2022-12-19T05:18:43.557Z,34.95
2022-12-19T05:21:11.360Z,34.30
2022-12-19T05:23:38.494Z,29.90
2022-12-19T05:26:06.321Z,32.80
2022-12-19T05:28:33.901Z,30.63
2022-12-19T05:31:05.667Z,36.55
2022-12-19T05:33:32.529Z,34.07
2022-12-19T05:35:59.356Z,29.85
2022-12-19T05:38:27.309Z,37.58
2022-12-19T05:40:54.158Z,29.20
2022-12-19T05:43:21.291Z,32.03
2022-12-19T05:45:48.072Z,31.27
2022-12-19T05:48:15.088Z,27.85
2022-12-19T05:50:42.641Z,27.90
2022-12-19T05:53:10.040Z,29.23
2022-12-19T05:55:36.778Z,28.65
2022-12-19T05:58:03.578Z,39.28
2022-12-19T06:00:30.388Z,40.03
2022-12-19T06:02:57.385Z,32.38
2022-12-19T06:05:24.232Z,35.00
2022-12-19T06:07:51.048Z,38.47
2022-12-19T06:10:17.818Z,35.13
2022-12-19T06:12:47.257Z,26.42
2022-12-19T06:15:14.032Z,29.55
2022-12-19T06:17:40.810Z,32.45
2022-12-19T06:20:08.244Z,29.52
2022-12-19T06:22:36.078Z,27.70
2022-12-19T06:25:03.019Z,28.80
2022-12-19T06:27:29.816Z,29.80
2022-12-19T06:29:56.565Z,34.13
2022-12-19T06:32:23.352Z,36.15
2022-12-19T06:35:05.404Z,32.60
2022-12-19T06:37:32.290Z,23.63
2022-12-19T06:40:01.917Z,30.80
2022-12-19T06:42:28.710Z,23.90
2022-12-19T06:44:56.604Z,26.85
2022-12-19T06:47:24.419Z,33.25
2022-12-19T06:49:51.607Z,35.00
2022-12-19T06:52:18.488Z,33.55
2022-12-19T06:54:45.310Z,40.67
2022-12-19T06:57:12.184Z,34.13
2022-12-19T06:59:38.931Z,30.33
2022-12-19T07:02:30.526Z,39.90
2022-12-19T07:05:04.712Z,43.00
2022-12-19T07:07:31.982Z,37.65
2022-12-19T07:09:59.117Z,42.90
2022-12-19T07:12:26.505Z,34.85
2022-12-19T07:14:53.910Z,39.25
2022-12-19T07:17:22.803Z,36.75
2022-12-19T07:19:49.601Z,36.95
2022-12-19T07:22:16.507Z,42.55
2022-12-19T07:24:43.700Z,46.50
2022-12-19T07:27:10.615Z,37.95
2022-12-19T07:29:37.469Z,37.72
2022-12-19T07:32:04.489Z,41.78
2022-12-19T07:34:31.375Z,35.80
2022-12-19T07:36:58.130Z,52.30
2022-12-19T07:39:25.370Z,47.63
2022-12-19T07:41:52.127Z,50.47
2022-12-19T07:44:18.921Z,84.15
2022-12-19T07:46:45.745Z,54.95
2022-12-19T07:49:16.980Z,83.60
2022-12-19T07:51:46.493Z,113.78
2022-12-19T07:54:14.291Z,77.13
2022-12-19T07:56:41.008Z,64.18
2022-12-19T07:59:08.022Z,50.22
2022-12-19T08:01:34.890Z,42.40
2022-12-19T08:04:01.762Z,48.10
2022-12-19T08:06:28.772Z,44.40
2022-12-19T08:08:55.608Z,45.13
2022-12-19T08:11:27.272Z,46.80
2022-12-19T08:13:55.062Z,51.80
2022-12-19T08:16:22.858Z,47.45
2022-12-19T08:18:49.693Z,47.78
2022-12-19T08:21:16.853Z,45.05
2022-12-19T08:23:43.632Z,54.42
2022-12-19T08:26:17.752Z,53.97
2022-12-19T08:28:48.247Z,59.95
2022-12-19T08:31:17.969Z,46.28
2022-12-19T08:33:45.000Z,41.28
2022-12-19T08:36:15.357Z,43.22
2022-12-19T08:38:42.295Z,37.75
2022-12-19T08:41:09.665Z,47.65
2022-12-19T08:43:36.699Z,39.28
2022-12-19T08:46:03.736Z,39.20
2022-12-19T08:48:32.163Z,42.40
2022-12-19T08:51:02.581Z,39.88
2022-12-19T08:53:32.669Z,44.85
2022-12-19T08:56:09.879Z,35.83
2022-12-19T08:58:36.861Z,36.05
2022-12-19T09:01:09.137Z,41.50
2022-12-19T09:03:42.830Z,25.45
2022-12-19T09:06:23.708Z,34.22
2022-12-19T09:08:50.505Z,37.47
2022-12-19T09:11:19.803Z,37.00
2022-12-19T09:13:48.348Z,38.95
2022-12-19T09:16:23.615Z,35.70
2022-12-19T09:18:53.314Z,44.75
2022-12-19T09:21:23.400Z,41.30
2022-12-19T09:23:53.919Z,45.47
2022-12-19T09:26:23.158Z,41.42
2022-12-19T09:28:51.043Z,38.83
2022-12-19T09:31:22.551Z,36.08
2022-12-19T09:33:49.579Z,41.10
2022-12-19T09:36:23.216Z,40.92
2022-12-19T09:38:51.367Z,44.05
2022-12-19T09:41:51.757Z,31.70
2022-12-19T09:44:52.865Z,42.35
2022-12-19T09:47:31.822Z,41.50
2022-12-19T09:50:00.491Z,37.17
2022-12-19T09:52:45.373Z,37.78
2022-12-19T09:55:28.379Z,39.80
2022-12-19T10:01:00.248Z,45.72
2022-12-19T10:03:30.533Z,43.63
2022-12-19T10:07:13.392Z,41.20
2022-12-19T10:11:45.744Z,51.42
2022-12-19T10:12:45.399Z,50.83
2022-12-19T10:15:43.961Z,54.65
2022-12-19T10:18:34.816Z,55.45
2022-12-19T10:21:07.935Z,52.30
2022-12-19T10:23:48.330Z,47.00
2022-12-19T10:26:34.580Z,51.97
2022-12-19T10:29:41.764Z,53.33
2022-12-19T10:32:36.917Z,46.50
2022-12-19T10:35:16.116Z,46.13
2022-12-19T10:37:56.753Z,50.70
2022-12-19T10:40:29.300Z,58.65
2022-12-19T10:43:44.072Z,52.95
2022-12-19T10:46:20.301Z,38.03
2022-12-19T10:48:51.587Z,42.55
2022-12-19T10:51:30.645Z,49.58
2022-12-19T10:54:00.356Z,44.92
2022-12-19T10:56:37.267Z,43.72
2022-12-19T10:59:21.299Z,60.13
2022-12-19T11:01:48.653Z,56.03
2022-12-19T11:04:34.660Z,68.22
2022-12-19T11:07:04.075Z,54.65
2022-12-19T11:09:41.913Z,49.33
2022-12-19T11:15:50.379Z,49.95
2022-12-19T11:20:36.403Z,47.63
2022-12-19T11:21:03.847Z,43.90
2022-12-19T11:29:34.556Z,40.38
2022-12-19T11:29:36.496Z,42.38
2022-12-19T11:30:48.856Z,40.70
2022-12-19T11:32:45.406Z,43.75
2022-12-19T11:35:37.047Z,46.72
2022-12-19T11:38:08.485Z,54.95
2022-12-19T11:40:56.059Z,44.22
2022-12-19T11:43:46.140Z,36.90
2022-12-19T11:46:24.967Z,40.08
2022-12-19T11:49:13.349Z,40.05
2022-12-19T11:52:29.445Z,41.60
2022-12-19T11:55:04.764Z,45.85
2022-12-19T11:57:32.158Z,44.72
2022-12-19T12:00:04.707Z,39.22
2022-12-19T12:03:04.631Z,41.97
2022-12-19T12:05:51.417Z,38.53
2022-12-19T12:11:38.296Z,39.33
2022-12-19T12:22:51.278Z,44.58
2022-12-19T12:25:13.318Z,49.88
2022-12-19T12:31:01.217Z,42.97
2022-12-19T12:31:09.104Z,41.38
2022-12-19T12:32:05.071Z,40.22
2022-12-19T12:32:05.402Z,34.45
2022-12-19T12:35:34.262Z,27.25
2022-12-19T12:38:40.563Z,36.05
2022-12-19T12:41:12.378Z,29.80
2022-12-19T12:44:09.317Z,40.13
2022-12-19T12:46:46.914Z,34.80
2022-12-19T12:49:42.446Z,40.22
2022-12-19T12:52:39.579Z,36.45
2022-12-19T12:55:18.354Z,38.58
2022-12-19T12:57:45.165Z,36.95
2022-12-19T13:00:31.582Z,53.58
2022-12-19T13:03:04.726Z,51.17
2022-12-19T13:05:46.728Z,41.42
2022-12-19T13:08:44.875Z,33.38
2022-12-19T13:11:39.287Z,29.63
2022-12-19T13:14:45.893Z,31.65
2022-12-19T13:17:47.600Z,41.67
2022-12-19T13:20:19.101Z,30.02
2022-12-19T13:22:59.347Z,30.58
2022-12-19T13:25:36.159Z,31.38
2022-12-19T13:28:02.830Z,38.60
2022-12-19T13:30:31.558Z,34.35
2022-12-19T13:33:01.225Z,33.55
2022-12-19T13:39:46.497Z,37.60
2022-12-19T13:39:54.015Z,59.10
2022-12-19T13:41:48.729Z,44.38
2022-12-19T13:44:21.943Z,36.97
2022-12-19T13:46:49.845Z,42.58
2022-12-19T13:49:34.133Z,31.15
2022-12-19T13:52:05.007Z,34.80
2022-12-19T13:54:45.678Z,37.60
2022-12-19T13:57:32.810Z,40.90
2022-12-19T14:00:09.981Z,37.25
2022-12-19T14:02:55.090Z,42.53
2022-12-19T14:06:17.424Z,31.25
2022-12-19T14:08:25.728Z,30.55
2022-12-19T14:11:47.509Z,49.22
2022-12-19T14:14:17.669Z,43.58
2022-12-19T14:16:48.869Z,45.42
2022-12-19T14:19:25.235Z,61.60
2022-12-19T14:22:09.023Z,85.53
2022-12-19T14:24:40.575Z,95.07
2022-12-19T14:28:21.196Z,71.57
2022-12-19T14:30:30.406Z,48.95
2022-12-19T14:33:46.308Z,41.10
2022-12-19T14:36:10.695Z,33.08
2022-12-19T14:39:24.939Z,40.17
2022-12-19T14:42:07.785Z,31.80
2022-12-19T14:52:35.435Z,35.70
2022-12-19T14:52:35.817Z,36.65
2022-12-19T14:54:34.889Z,33.95
2022-12-19T14:54:42.094Z,28.58
2022-12-19T14:56:36.302Z,37.90
2022-12-19T14:59:20.893Z,36.17
2022-12-19T15:02:27.608Z,35.95
2022-12-19T15:05:06.028Z,28.08
2022-12-19T15:07:34.420Z,24.83
2022-12-19T15:11:08.579Z,29.92
2022-12-19T15:14:54.393Z,24.58
2022-12-19T15:16:30.741Z,30.27
2022-12-19T15:19:00.908Z,24.40
2022-12-19T15:21:30.454Z,23.88
2022-12-19T15:23:57.479Z,24.63
2022-12-19T15:26:34.843Z,21.35
2022-12-19T15:29:03.342Z,26.23
2022-12-19T15:31:40.482Z,22.30
2022-12-19T15:34:36.826Z,44.50
2022-12-19T15:37:05.018Z,34.13
2022-12-19T15:39:32.132Z,28.40
2022-12-19T15:42:00.513Z,34.08
2022-12-19T15:44:40.148Z,26.85
2022-12-19T15:47:20.085Z,24.95
2022-12-19T15:49:47.576Z,23.13
2022-12-19T15:52:18.762Z,23.27
2022-12-19T15:54:49.423Z,27.08
2022-12-19T15:57:42.055Z,24.85
2022-12-19T16:00:19.863Z,26.33
2022-12-19T16:05:34.778Z,30.52
2022-12-19T16:08:01.615Z,50.20
2022-12-19T16:10:28.716Z,56.70
2022-12-19T16:12:57.867Z,54.45
2022-12-19T16:15:34.447Z,38.92
2022-12-19T16:18:03.852Z,47.65
2022-12-19T16:20:36.214Z,57.72
2022-12-19T16:23:03.151Z,49.60
2022-12-19T16:25:36.937Z,39.22
2022-12-19T16:28:06.136Z,39.25
2022-12-19T16:30:35.245Z,49.30
2022-12-19T16:33:02.381Z,46.35
2022-12-19T16:36:02.524Z,40.55
2022-12-19T16:38:17.868Z,36.95
2022-12-19T16:40:45.773Z,35.90
2022-12-19T16:43:24.245Z,33.50
2022-12-19T16:45:51.837Z,31.55
2022-12-19T16:48:27.649Z,31.73
2022-12-19T16:50:54.428Z,27.58
2022-12-19T16:53:21.237Z,35.53
2022-12-19T16:55:50.197Z,34.42
2022-12-19T16:58:22.767Z,35.45
2022-12-19T17:00:52.093Z,40.75
2022-12-19T17:03:42.950Z,34.55
2022-12-19T17:06:22.936Z,33.15
2022-12-19T17:08:49.898Z,31.10
2022-12-19T17:11:23.670Z,33.70
2022-12-19T17:14:02.680Z,28.25
2022-12-19T17:16:31.212Z,26.77
2022-12-19T17:18:59.196Z,30.67
2022-12-19T17:21:26.049Z,37.03
2022-12-19T17:23:53.025Z,37.83
2022-12-19T17:26:19.876Z,25.73
2022-12-19T17:28:49.583Z,31.10
2022-12-19T17:31:24.801Z,34.53
2022-12-19T17:33:52.058Z,29.10
2022-12-19T17:36:24.832Z,32.83
2022-12-19T17:38:52.909Z,34.08
2022-12-19T17:41:19.766Z,24.25
2022-12-19T17:43:46.581Z,34.63
2022-12-19T17:46:22.237Z,28.63
2022-12-19T17:48:52.568Z,31.30
2022-12-19T17:51:22.419Z,28.48
2022-12-19T17:53:49.922Z,28.70
2022-12-19T17:56:20.687Z,24.50
2022-12-19T17:58:48.680Z,35.50
2022-12-19T18:01:23.956Z,25.42
2022-12-19T18:03:53.025Z,31.42
2022-12-19T18:06:20.732Z,27.10
2022-12-19T18:08:48.044Z,28.13
2022-12-19T18:11:24.780Z,32.63
2022-12-19T18:13:53.312Z,27.35
2022-12-19T18:16:26.264Z,35.45
2022-12-19T18:18:53.176Z,25.10
2022-12-19T18:21:24.231Z,32.08
2022-12-19T18:23:51.767Z,27.13
2022-12-19T18:26:18.657Z,28.60
2022-12-19T18:28:45.493Z,24.95
2022-12-19T18:31:20.398Z,23.60
2022-12-19T18:33:50.607Z,32.47
2022-12-19T18:36:23.532Z,25.35
2022-12-19T18:38:51.415Z,21.35
2022-12-19T18:41:20.173Z,30.27
2022-12-19T18:43:47.701Z,24.80
2022-12-19T18:46:26.376Z,22.00
2022-12-19T18:48:53.455Z,22.75
2022-12-19T18:51:23.335Z,26.23
2022-12-19T18:53:51.009Z,21.50
2022-12-19T18:56:18.050Z,21.67
2022-12-19T18:58:44.875Z,21.92
2022-12-19T19:01:17.192Z,26.23
2022-12-19T19:03:54.458Z,23.83
2022-12-19T19:06:32.941Z,17.88
2022-12-19T19:09:03.344Z,20.90
2022-12-19T19:11:30.180Z,20.50
2022-12-19T19:13:57.155Z,20.77
2022-12-19T19:16:26.333Z,22.33
2022-12-19T19:18:55.991Z,21.85
2022-12-19T19:21:30.456Z,19.55
2022-12-19T19:24:19.508Z,21.08
2022-12-19T19:26:46.451Z,21.92
2022-12-19T19:29:19.060Z,20.52
2022-12-19T19:31:48.477Z,25.20
2022-12-19T19:34:30.161Z,23.38
2022-12-19T19:37:01.036Z,20.30
2022-12-19T19:39:28.527Z,20.30
2022-12-19T19:41:56.456Z,20.95
2022-12-19T19:44:23.418Z,21.27
2022-12-19T19:46:50.340Z,20.75
2022-12-19T19:49:17.368Z,28.02
2022-12-19T19:51:44.256Z,20.38
2022-12-19T19:54:11.211Z,19.98
2022-12-19T19:56:38.211Z,15.27
2022-12-19T19:59:05.872Z,23.48
2022-12-19T20:01:32.896Z,29.00
2022-12-19T20:03:59.880Z,22.33
2022-12-19T20:06:26.944Z,22.02
2022-12-19T20:08:53.769Z,18.65
2022-12-19T20:11:20.927Z,16.90
2022-12-19T20:13:47.931Z,17.70
2022-12-19T20:16:18.341Z,26.63
2022-12-19T20:18:53.224Z,19.50
2022-12-19T20:21:21.696Z,20.65
2022-12-19T20:23:48.564Z,18.67
2022-12-19T20:26:17.133Z,23.42
2022-12-19T20:28:49.340Z,22.30
2022-12-19T20:31:19.876Z,21.65
2022-12-19T20:33:48.589Z,25.90
2022-12-19T20:36:16.731Z,18.88
2022-12-19T20:38:43.923Z,25.92
2022-12-19T20:41:10.995Z,18.52
2022-12-19T20:43:38.812Z,16.08
2022-12-19T20:46:14.235Z,20.30
2022-12-19T20:48:41.900Z,17.95
2022-12-19T20:51:10.197Z,20.80
2022-12-19T20:53:39.049Z,19.88
2022-12-19T20:56:07.940Z,19.13
2022-12-19T20:58:37.566Z,16.80
2022-12-19T21:01:17.969Z,15.63
2022-12-19T21:03:45.287Z,18.25
2022-12-19T21:06:15.585Z,15.50
2022-12-19T21:08:42.806Z,19.00
2022-12-19T21:11:10.124Z,15.93
2022-12-19T21:13:38.053Z,18.10
2022-12-19T21:16:08.982Z,17.13
2022-12-19T21:18:38.669Z,18.73
2022-12-19T21:21:08.480Z,16.92
2022-12-19T21:23:35.382Z,19.85
2022-12-19T21:26:04.889Z,23.42
2022-12-19T21:28:32.692Z,22.42
2022-12-19T21:31:05.212Z,17.63
2022-12-19T21:33:32.425Z,12.02
2022-12-19T21:36:10.350Z,18.77
2022-12-19T21:38:37.761Z,14.07
2022-12-19T21:41:06.621Z,24.58
2022-12-19T21:43:35.005Z,20.20
2022-12-19T21:46:10.712Z,24.15
2022-12-19T21:48:40.383Z,19.27
2022-12-19T21:51:08.259Z,17.00
2022-12-19T21:53:36.977Z,16.15
2022-12-19T21:56:25.459Z,13.90
2022-12-19T21:59:02.014Z,14.60
2022-12-19T22:01:30.799Z,17.38
2022-12-19T22:04:03.987Z,22.90
2022-12-19T22:06:33.420Z,17.35
2022-12-19T22:09:02.043Z,16.52
2022-12-19T22:11:30.225Z,15.90
2022-12-19T22:14:00.553Z,17.13
2022-12-19T22:16:28.685Z,15.98
2022-12-19T22:18:56.628Z,22.20
2022-12-19T22:21:25.566Z,18.85
2022-12-19T22:23:52.838Z,25.13
2022-12-19T22:26:23.292Z,20.25
2022-12-19T22:28:54.120Z,22.95
2022-12-19T22:31:29.834Z,16.23
2022-12-19T22:34:03.141Z,22.60
2022-12-19T22:36:32.156Z,21.45
2022-12-19T22:39:01.916Z,13.88
2022-12-19T22:41:29.155Z,19.23
2022-12-19T22:43:56.643Z,21.65
2022-12-19T22:46:30.655Z,24.77
2022-12-19T22:49:01.388Z,16.40
2022-12-19T22:51:30.215Z,30.15
2022-12-19T22:53:58.184Z,22.17
2022-12-19T22:56:28.996Z,16.98
2022-12-19T22:59:00.099Z,21.50
2022-12-19T23:01:30.601Z,21.50
2022-12-19T23:04:01.505Z,17.90
2022-12-19T23:06:33.677Z,18.58
2022-12-19T23:09:00.998Z,20.27
2022-12-19T23:11:35.564Z,19.15
2022-12-19T23:14:05.550Z,22.00
2022-12-19T23:16:32.553Z,23.40
2022-12-19T23:18:59.336Z,20.23
2022-12-19T23:21:27.054Z,20.10
2022-12-19T23:23:55.652Z,14.10
2022-12-19T23:26:23.726Z,19.73
2022-12-19T23:29:00.344Z,22.48
2022-12-19T23:31:28.951Z,19.65
2022-12-19T23:33:57.229Z,20.10
2022-12-19T23:37:00.269Z,16.50
2022-12-19T23:39:12.789Z,21.52
2022-12-19T23:41:40.097Z,15.90
2022-12-19T23:44:07.589Z,11.43
2022-12-19T23:46:34.375Z,17.17
2022-12-19T23:49:01.260Z,16.95
2022-12-19T23:51:28.442Z,18.83
2022-12-19T23:53:56.555Z,15.25
2022-12-19T23:56:29.967Z,13.45
2022-12-19T23:58:57.455Z,19.90
